sensor_id;sensor_type;location;lat;lon;timestamp;temperature;humidity
31725;DHT22;18306;40.960;14.836;2023-08-20T00:00:33;26.20;99.90
31725;DHT22;18306;40.960;14.836;2023-08-20T00:03:12;26.10;99.90
31725;DHT22;18306;40.960;14.836;2023-08-20T00:05:40;26.10;99.90
31725;DHT22;18306;40.960;14.836;2023-08-20T00:08:07;26.00;99.90
31725;DHT22;18306;40.960;14.836;2023-08-20T00:10:35;26.10;99.90
31725;DHT22;18306;40.960;14.836;2023-08-20T00:13:02;26.10;99.90
31725;DHT22;18306;40.960;14.836;2023-08-20T00:15:29;26.10;99.90
31725;DHT22;18306;40.960;14.836;2023-08-20T00:17:56;26.10;99.90
31725;DHT22;18306;40.960;14.836;2023-08-20T00:20:24;26.10;99.90
31725;DHT22;18306;40.960;14.836;2023-08-20T00:22:51;25.90;99.90
31725;DHT22;18306;40.960;14.836;2023-08-20T00:25:18;25.80;99.90
31725;DHT22;18306;40.960;14.836;2023-08-20T00:27:46;25.80;99.90
31725;DHT22;18306;40.960;14.836;2023-08-20T00:30:14;25.70;99.90
31725;DHT22;18306;40.960;14.836;2023-08-20T00:32:41;25.60;99.90
31725;DHT22;18306;40.960;14.836;2023-08-20T00:35:08;25.50;99.90
31725;DHT22;18306;40.960;14.836;2023-08-20T00:37:37;25.50;99.90
31725;DHT22;18306;40.960;14.836;2023-08-20T00:40:04;25.40;99.90
31725;DHT22;18306;40.960;14.836;2023-08-20T00:42:32;25.40;99.90
31725;DHT22;18306;40.960;14.836;2023-08-20T00:44:59;25.40;99.90
31725;DHT22;18306;40.960;14.836;2023-08-20T00:47:28;25.40;99.90
31725;DHT22;18306;40.960;14.836;2023-08-20T00:49:55;25.40;99.90
31725;DHT22;18306;40.960;14.836;2023-08-20T00:52:22;25.40;99.90
31725;DHT22;18306;40.960;14.836;2023-08-20T00:54:50;25.50;99.90
31725;DHT22;18306;40.960;14.836;2023-08-20T00:57:18;25.40;99.90
31725;DHT22;18306;40.960;14.836;2023-08-20T00:59:48;25.10;99.90
31725;DHT22;18306;40.960;14.836;2023-08-20T01:02:17;25.10;99.90
31725;DHT22;18306;40.960;14.836;2023-08-20T01:04:47;25.10;99.90
31725;DHT22;18306;40.960;14.836;2023-08-20T01:12:51;25.00;99.90
31725;DHT22;18306;40.960;14.836;2023-08-20T01:15:19;25.20;99.90
31725;DHT22;18306;40.960;14.836;2023-08-20T01:17:47;25.20;99.90
31725;DHT22;18306;40.960;14.836;2023-08-20T01:20:15;25.30;99.90
31725;DHT22;18306;40.960;14.836;2023-08-20T01:28:39;25.30;99.90
31725;DHT22;18306;40.960;14.836;2023-08-20T01:31:06;25.30;99.90
31725;DHT22;18306;40.960;14.836;2023-08-20T01:33:34;25.30;99.90
31725;DHT22;18306;40.960;14.836;2023-08-20T01:36:02;25.40;99.90
31725;DHT22;18306;40.960;14.836;2023-08-20T01:38:29;25.30;99.90
31725;DHT22;18306;40.960;14.836;2023-08-20T01:40:56;25.10;99.90
31725;DHT22;18306;40.960;14.836;2023-08-20T01:43:23;24.80;99.90
31725;DHT22;18306;40.960;14.836;2023-08-20T01:45:50;24.70;99.90
31725;DHT22;18306;40.960;14.836;2023-08-20T01:48:17;24.50;99.90
31725;DHT22;18306;40.960;14.836;2023-08-20T01:50:44;24.40;99.90
31725;DHT22;18306;40.960;14.836;2023-08-20T01:53:12;24.50;99.90
31725;DHT22;18306;40.960;14.836;2023-08-20T01:55:39;24.60;99.90
31725;DHT22;18306;40.960;14.836;2023-08-20T01:58:06;24.70;99.90
31725;DHT22;18306;40.960;14.836;2023-08-20T02:00:33;24.80;99.90
31725;DHT22;18306;40.960;14.836;2023-08-20T02:03:00;24.80;99.90
31725;DHT22;18306;40.960;14.836;2023-08-20T02:05:27;25.00;99.90
31725;DHT22;18306;40.960;14.836;2023-08-20T02:07:54;25.00;99.90
31725;DHT22;18306;40.960;14.836;2023-08-20T02:10:21;25.00;99.90
31725;DHT22;18306;40.960;14.836;2023-08-20T02:12:48;25.00;99.90
31725;DHT22;18306;40.960;14.836;2023-08-20T02:15:16;25.00;99.90
31725;DHT22;18306;40.960;14.836;2023-08-20T02:17:43;24.80;99.90
31725;DHT22;18306;40.960;14.836;2023-08-20T02:20:11;24.70;99.90
31725;DHT22;18306;40.960;14.836;2023-08-20T02:22:38;24.70;99.90
31725;DHT22;18306;40.960;14.836;2023-08-20T02:25:05;24.80;99.90
31725;DHT22;18306;40.960;14.836;2023-08-20T02:27:32;24.70;99.90
31725;DHT22;18306;40.960;14.836;2023-08-20T02:29:59;24.60;99.90
31725;DHT22;18306;40.960;14.836;2023-08-20T02:32:26;24.70;99.90
31725;DHT22;18306;40.960;14.836;2023-08-20T02:34:53;24.80;99.90
31725;DHT22;18306;40.960;14.836;2023-08-20T02:37:21;24.60;99.90
31725;DHT22;18306;40.960;14.836;2023-08-20T02:39:47;24.60;99.90
31725;DHT22;18306;40.960;14.836;2023-08-20T02:42:14;24.60;99.90
31725;DHT22;18306;40.960;14.836;2023-08-20T02:44:41;24.70;99.90
31725;DHT22;18306;40.960;14.836;2023-08-20T02:47:09;24.50;99.90
31725;DHT22;18306;40.960;14.836;2023-08-20T02:49:35;24.40;99.90
31725;DHT22;18306;40.960;14.836;2023-08-20T02:52:03;24.40;99.90
31725;DHT22;18306;40.960;14.836;2023-08-20T02:54:31;24.30;99.90
31725;DHT22;18306;40.960;14.836;2023-08-20T02:56:59;24.30;99.90
31725;DHT22;18306;40.960;14.836;2023-08-20T02:59:26;24.20;99.90
31725;DHT22;18306;40.960;14.836;2023-08-20T03:01:53;24.30;99.90
31725;DHT22;18306;40.960;14.836;2023-08-20T03:04:20;24.30;99.90
31725;DHT22;18306;40.960;14.836;2023-08-20T03:06:47;24.30;99.90
31725;DHT22;18306;40.960;14.836;2023-08-20T03:09:14;24.30;99.90
31725;DHT22;18306;40.960;14.836;2023-08-20T03:11:41;24.30;99.90
31725;DHT22;18306;40.960;14.836;2023-08-20T03:14:08;24.30;99.90
31725;DHT22;18306;40.960;14.836;2023-08-20T03:16:35;24.30;99.90
31725;DHT22;18306;40.960;14.836;2023-08-20T03:19:02;24.40;99.90
31725;DHT22;18306;40.960;14.836;2023-08-20T03:21:29;24.40;99.90
31725;DHT22;18306;40.960;14.836;2023-08-20T03:23:56;24.50;99.90
31725;DHT22;18306;40.960;14.836;2023-08-20T03:26:23;24.50;99.90
31725;DHT22;18306;40.960;14.836;2023-08-20T03:28:50;24.60;99.90
31725;DHT22;18306;40.960;14.836;2023-08-20T03:31:18;24.60;99.90
31725;DHT22;18306;40.960;14.836;2023-08-20T03:33:45;24.60;99.90
31725;DHT22;18306;40.960;14.836;2023-08-20T03:36:13;24.60;99.90
31725;DHT22;18306;40.960;14.836;2023-08-20T03:38:40;24.60;99.90
31725;DHT22;18306;40.960;14.836;2023-08-20T03:41:07;24.60;99.90
31725;DHT22;18306;40.960;14.836;2023-08-20T03:43:36;24.60;99.90
31725;DHT22;18306;40.960;14.836;2023-08-20T03:46:03;24.50;99.90
31725;DHT22;18306;40.960;14.836;2023-08-20T03:48:30;24.40;99.90
31725;DHT22;18306;40.960;14.836;2023-08-20T03:50:57;24.30;99.90
31725;DHT22;18306;40.960;14.836;2023-08-20T03:53:24;24.10;99.90
31725;DHT22;18306;40.960;14.836;2023-08-20T03:55:51;24.00;99.90
31725;DHT22;18306;40.960;14.836;2023-08-20T03:58:18;23.80;99.90
31725;DHT22;18306;40.960;14.836;2023-08-20T04:00:45;23.80;99.90
31725;DHT22;18306;40.960;14.836;2023-08-20T04:03:13;23.90;99.90
31725;DHT22;18306;40.960;14.836;2023-08-20T04:05:40;23.90;99.90
31725;DHT22;18306;40.960;14.836;2023-08-20T04:08:07;24.00;99.90
31725;DHT22;18306;40.960;14.836;2023-08-20T04:10:34;24.10;99.90
31725;DHT22;18306;40.960;14.836;2023-08-20T04:13:02;24.10;99.90
31725;DHT22;18306;40.960;14.836;2023-08-20T04:15:29;24.20;99.90
31725;DHT22;18306;40.960;14.836;2023-08-20T04:17:56;24.20;99.90
31725;DHT22;18306;40.960;14.836;2023-08-20T04:20:23;24.30;99.90
31725;DHT22;18306;40.960;14.836;2023-08-20T04:22:50;24.30;99.90
31725;DHT22;18306;40.960;14.836;2023-08-20T04:25:17;24.30;99.90
31725;DHT22;18306;40.960;14.836;2023-08-20T04:27:44;24.30;99.90
31725;DHT22;18306;40.960;14.836;2023-08-20T04:30:11;24.30;99.90
31725;DHT22;18306;40.960;14.836;2023-08-20T04:32:41;24.20;99.90
31725;DHT22;18306;40.960;14.836;2023-08-20T04:35:14;24.30;99.90
31725;DHT22;18306;40.960;14.836;2023-08-20T04:37:57;24.30;99.90
31725;DHT22;18306;40.960;14.836;2023-08-20T04:40:48;24.20;99.90
31725;DHT22;18306;40.960;14.836;2023-08-20T04:43:25;24.20;99.90
31725;DHT22;18306;40.960;14.836;2023-08-20T04:46:08;24.20;99.90
31725;DHT22;18306;40.960;14.836;2023-08-20T04:48:35;24.20;99.90
31725;DHT22;18306;40.960;14.836;2023-08-20T04:51:05;24.10;99.90
31725;DHT22;18306;40.960;14.836;2023-08-20T04:53:40;24.20;99.90
31725;DHT22;18306;40.960;14.836;2023-08-20T04:56:08;24.20;99.90
31725;DHT22;18306;40.960;14.836;2023-08-20T04:58:35;24.30;99.90
31725;DHT22;18306;40.960;14.836;2023-08-20T05:01:02;24.30;99.90
31725;DHT22;18306;40.960;14.836;2023-08-20T05:03:31;24.40;99.90
31725;DHT22;18306;40.960;14.836;2023-08-20T05:05:58;24.40;99.90
31725;DHT22;18306;40.960;14.836;2023-08-20T05:08:25;24.40;99.90
31725;DHT22;18306;40.960;14.836;2023-08-20T05:10:52;24.40;99.90
31725;DHT22;18306;40.960;14.836;2023-08-20T05:13:19;24.50;99.90
31725;DHT22;18306;40.960;14.836;2023-08-20T05:15:49;24.60;99.90
31725;DHT22;18306;40.960;14.836;2023-08-20T05:18:16;24.60;99.90
31725;DHT22;18306;40.960;14.836;2023-08-20T05:20:43;24.60;99.90
31725;DHT22;18306;40.960;14.836;2023-08-20T05:23:10;24.70;99.90
31725;DHT22;18306;40.960;14.836;2023-08-20T05:25:37;24.70;99.90
31725;DHT22;18306;40.960;14.836;2023-08-20T05:28:05;24.70;99.90
31725;DHT22;18306;40.960;14.836;2023-08-20T05:30:34;24.70;99.90
31725;DHT22;18306;40.960;14.836;2023-08-20T05:33:02;24.80;99.90
31725;DHT22;18306;40.960;14.836;2023-08-20T05:35:35;24.90;99.90
31725;DHT22;18306;40.960;14.836;2023-08-20T05:38:03;25.00;99.90
31725;DHT22;18306;40.960;14.836;2023-08-20T05:40:30;24.90;99.90
31725;DHT22;18306;40.960;14.836;2023-08-20T05:42:58;25.00;99.90
31725;DHT22;18306;40.960;14.836;2023-08-20T05:45:25;25.00;99.90
31725;DHT22;18306;40.960;14.836;2023-08-20T05:47:53;25.10;99.90
31725;DHT22;18306;40.960;14.836;2023-08-20T05:50:21;25.20;99.90
31725;DHT22;18306;40.960;14.836;2023-08-20T05:52:48;25.30;99.90
31725;DHT22;18306;40.960;14.836;2023-08-20T05:55:15;25.40;99.90
31725;DHT22;18306;40.960;14.836;2023-08-20T05:57:42;25.40;99.90
31725;DHT22;18306;40.960;14.836;2023-08-20T06:00:11;25.60;99.90
31725;DHT22;18306;40.960;14.836;2023-08-20T06:02:41;25.60;99.90
31725;DHT22;18306;40.960;14.836;2023-08-20T06:05:09;25.60;99.90
31725;DHT22;18306;40.960;14.836;2023-08-20T06:07:36;25.70;99.90
31725;DHT22;18306;40.960;14.836;2023-08-20T06:10:04;25.80;99.90
31725;DHT22;18306;40.960;14.836;2023-08-20T06:12:32;25.90;99.90
31725;DHT22;18306;40.960;14.836;2023-08-20T06:14:59;26.10;99.90
31725;DHT22;18306;40.960;14.836;2023-08-20T06:17:26;26.20;99.90
31725;DHT22;18306;40.960;14.836;2023-08-20T06:19:53;26.30;99.90
31725;DHT22;18306;40.960;14.836;2023-08-20T06:22:20;26.60;99.90
31725;DHT22;18306;40.960;14.836;2023-08-20T06:24:47;26.90;99.90
31725;DHT22;18306;40.960;14.836;2023-08-20T06:27:14;27.10;99.90
31725;DHT22;18306;40.960;14.836;2023-08-20T06:29:41;27.30;99.90
31725;DHT22;18306;40.960;14.836;2023-08-20T06:32:08;27.50;99.90
31725;DHT22;18306;40.960;14.836;2023-08-20T06:34:35;27.70;99.90
31725;DHT22;18306;40.960;14.836;2023-08-20T06:37:03;27.70;99.90
31725;DHT22;18306;40.960;14.836;2023-08-20T06:39:30;27.80;99.90
31725;DHT22;18306;40.960;14.836;2023-08-20T06:41:57;27.80;99.90
31725;DHT22;18306;40.960;14.836;2023-08-20T06:44:25;28.00;99.90
31725;DHT22;18306;40.960;14.836;2023-08-20T06:46:52;28.10;99.90
31725;DHT22;18306;40.960;14.836;2023-08-20T06:49:19;28.20;99.90
31725;DHT22;18306;40.960;14.836;2023-08-20T06:51:46;28.30;99.90
31725;DHT22;18306;40.960;14.836;2023-08-20T06:54:15;28.30;99.90
31725;DHT22;18306;40.960;14.836;2023-08-20T06:56:42;28.30;99.90
31725;DHT22;18306;40.960;14.836;2023-08-20T06:59:09;28.50;99.90
31725;DHT22;18306;40.960;14.836;2023-08-20T07:01:37;28.70;99.90
31725;DHT22;18306;40.960;14.836;2023-08-20T07:04:04;28.80;99.90
31725;DHT22;18306;40.960;14.836;2023-08-20T07:06:31;28.90;99.90
31725;DHT22;18306;40.960;14.836;2023-08-20T07:08:58;29.10;99.90
31725;DHT22;18306;40.960;14.836;2023-08-20T07:11:25;29.40;99.90
31725;DHT22;18306;40.960;14.836;2023-08-20T07:13:52;29.50;99.20
31725;DHT22;18306;40.960;14.836;2023-08-20T07:16:19;29.60;98.70
31725;DHT22;18306;40.960;14.836;2023-08-20T07:18:46;29.80;98.30
31725;DHT22;18306;40.960;14.836;2023-08-20T07:21:13;29.90;98.30
31725;DHT22;18306;40.960;14.836;2023-08-20T07:23:40;30.10;97.90
31725;DHT22;18306;40.960;14.836;2023-08-20T07:26:11;30.20;97.20
31725;DHT22;18306;40.960;14.836;2023-08-20T07:28:42;30.30;97.00
31725;DHT22;18306;40.960;14.836;2023-08-20T07:31:25;30.30;96.80
31725;DHT22;18306;40.960;14.836;2023-08-20T07:33:53;30.40;96.40
31725;DHT22;18306;40.960;14.836;2023-08-20T07:36:22;30.50;96.40
31725;DHT22;18306;40.960;14.836;2023-08-20T07:38:50;30.70;96.30
31725;DHT22;18306;40.960;14.836;2023-08-20T07:41:18;30.80;95.90
31725;DHT22;18306;40.960;14.836;2023-08-20T07:43:46;31.10;95.80
31725;DHT22;18306;40.960;14.836;2023-08-20T07:46:14;31.70;95.20
31725;DHT22;18306;40.960;14.836;2023-08-20T07:48:41;32.50;94.80
31725;DHT22;18306;40.960;14.836;2023-08-20T07:51:08;33.40;93.20
31725;DHT22;18306;40.960;14.836;2023-08-20T07:53:35;34.30;92.50
31725;DHT22;18306;40.960;14.836;2023-08-20T07:56:03;34.90;91.30
31725;DHT22;18306;40.960;14.836;2023-08-20T07:58:30;35.40;91.10
31725;DHT22;18306;40.960;14.836;2023-08-20T08:01:03;35.80;90.40
31725;DHT22;18306;40.960;14.836;2023-08-20T08:03:31;36.20;89.90
31725;DHT22;18306;40.960;14.836;2023-08-20T08:05:58;36.30;86.60
31725;DHT22;18306;40.960;14.836;2023-08-20T08:08:25;36.30;87.60
31725;DHT22;18306;40.960;14.836;2023-08-20T08:10:52;35.90;87.90
31725;DHT22;18306;40.960;14.836;2023-08-20T08:13:22;35.40;88.90
31725;DHT22;18306;40.960;14.836;2023-08-20T08:15:50;34.70;89.20
31725;DHT22;18306;40.960;14.836;2023-08-20T08:18:19;34.50;90.40
31725;DHT22;18306;40.960;14.836;2023-08-20T08:20:46;33.90;90.50
31725;DHT22;18306;40.960;14.836;2023-08-20T08:23:13;33.50;91.30
31725;DHT22;18306;40.960;14.836;2023-08-20T08:25:40;33.10;91.10
31725;DHT22;18306;40.960;14.836;2023-08-20T08:28:07;32.90;91.80
31725;DHT22;18306;40.960;14.836;2023-08-20T08:30:35;32.60;92.10
31725;DHT22;18306;40.960;14.836;2023-08-20T08:33:02;32.60;92.20
31725;DHT22;18306;40.960;14.836;2023-08-20T08:35:29;32.50;92.10
31725;DHT22;18306;40.960;14.836;2023-08-20T08:37:56;32.50;92.10
31725;DHT22;18306;40.960;14.836;2023-08-20T08:40:28;32.30;92.70
31725;DHT22;18306;40.960;14.836;2023-08-20T08:42:59;32.30;92.50
31725;DHT22;18306;40.960;14.836;2023-08-20T08:45:27;32.20;92.40
31725;DHT22;18306;40.960;14.836;2023-08-20T08:47:55;32.10;92.40
31725;DHT22;18306;40.960;14.836;2023-08-20T08:50:22;32.20;92.50
31725;DHT22;18306;40.960;14.836;2023-08-20T08:52:51;32.20;92.60
31725;DHT22;18306;40.960;14.836;2023-08-20T08:55:20;32.30;93.00
31725;DHT22;18306;40.960;14.836;2023-08-20T08:57:48;32.30;93.00
31725;DHT22;18306;40.960;14.836;2023-08-20T09:00:15;32.30;93.10
31725;DHT22;18306;40.960;14.836;2023-08-20T09:02:42;32.10;92.80
31725;DHT22;18306;40.960;14.836;2023-08-20T09:05:09;32.20;92.50
31725;DHT22;18306;40.960;14.836;2023-08-20T09:07:44;32.30;92.60
31725;DHT22;18306;40.960;14.836;2023-08-20T09:10:16;32.10;92.40
31725;DHT22;18306;40.960;14.836;2023-08-20T09:12:47;31.80;92.10
31725;DHT22;18306;40.960;14.836;2023-08-20T09:15:14;31.80;92.60
31725;DHT22;18306;40.960;14.836;2023-08-20T09:17:41;31.90;92.70
31725;DHT22;18306;40.960;14.836;2023-08-20T09:20:09;32.00;92.90
31725;DHT22;18306;40.960;14.836;2023-08-20T09:22:37;32.10;93.40
31725;DHT22;18306;40.960;14.836;2023-08-20T09:25:07;32.20;92.50
31725;DHT22;18306;40.960;14.836;2023-08-20T09:27:42;32.40;92.60
31725;DHT22;18306;40.960;14.836;2023-08-20T09:30:09;32.40;92.80
31725;DHT22;18306;40.960;14.836;2023-08-20T09:32:37;32.50;92.80
31725;DHT22;18306;40.960;14.836;2023-08-20T09:35:05;32.60;92.40
31725;DHT22;18306;40.960;14.836;2023-08-20T09:37:34;32.70;92.40
31725;DHT22;18306;40.960;14.836;2023-08-20T09:40:01;32.70;92.10
31725;DHT22;18306;40.960;14.836;2023-08-20T09:42:30;32.70;92.00
31725;DHT22;18306;40.960;14.836;2023-08-20T09:45:02;32.60;92.20
31725;DHT22;18306;40.960;14.836;2023-08-20T09:47:35;32.70;92.10
31725;DHT22;18306;40.960;14.836;2023-08-20T09:50:09;32.80;92.30
31725;DHT22;18306;40.960;14.836;2023-08-20T09:52:48;32.90;92.10
31725;DHT22;18306;40.960;14.836;2023-08-20T09:55:21;33.00;92.20
31725;DHT22;18306;40.960;14.836;2023-08-20T09:57:49;32.90;92.20
31725;DHT22;18306;40.960;14.836;2023-08-20T10:00:20;33.00;92.10
31725;DHT22;18306;40.960;14.836;2023-08-20T10:02:51;32.60;92.00
31725;DHT22;18306;40.960;14.836;2023-08-20T10:05:19;32.70;92.20
31725;DHT22;18306;40.960;14.836;2023-08-20T10:07:49;32.70;92.10
31725;DHT22;18306;40.960;14.836;2023-08-20T10:10:18;32.80;92.60
31725;DHT22;18306;40.960;14.836;2023-08-20T10:12:47;32.80;91.70
31725;DHT22;18306;40.960;14.836;2023-08-20T10:15:15;32.60;92.30
31725;DHT22;18306;40.960;14.836;2023-08-20T10:17:45;32.50;92.10
31725;DHT22;18306;40.960;14.836;2023-08-20T10:20:14;32.70;92.20
31725;DHT22;18306;40.960;14.836;2023-08-20T10:22:45;33.00;92.10
31725;DHT22;18306;40.960;14.836;2023-08-20T10:25:22;33.00;91.90
31725;DHT22;18306;40.960;14.836;2023-08-20T10:27:49;33.10;91.30
31725;DHT22;18306;40.960;14.836;2023-08-20T10:30:18;33.10;91.40
31725;DHT22;18306;40.960;14.836;2023-08-20T10:32:56;33.10;91.60
31725;DHT22;18306;40.960;14.836;2023-08-20T10:35:28;33.20;91.90
31725;DHT22;18306;40.960;14.836;2023-08-20T10:38:07;33.20;91.10
31725;DHT22;18306;40.960;14.836;2023-08-20T10:40:54;33.20;91.10
31725;DHT22;18306;40.960;14.836;2023-08-20T10:43:38;33.10;91.00
31725;DHT22;18306;40.960;14.836;2023-08-20T10:46:27;32.90;91.20
31725;DHT22;18306;40.960;14.836;2023-08-20T10:49:00;33.00;91.40
31725;DHT22;18306;40.960;14.836;2023-08-20T10:51:34;33.10;91.50
31725;DHT22;18306;40.960;14.836;2023-08-20T10:54:08;33.10;90.90
31725;DHT22;18306;40.960;14.836;2023-08-20T10:56:43;33.20;91.10
31725;DHT22;18306;40.960;14.836;2023-08-20T10:59:17;33.30;91.30
31725;DHT22;18306;40.960;14.836;2023-08-20T11:01:48;33.30;91.40
31725;DHT22;18306;40.960;14.836;2023-08-20T11:04:17;33.40;91.10
31725;DHT22;18306;40.960;14.836;2023-08-20T11:06:49;33.40;91.00
31725;DHT22;18306;40.960;14.836;2023-08-20T11:09:21;33.40;91.30
31725;DHT22;18306;40.960;14.836;2023-08-20T11:11:48;33.40;91.20
31725;DHT22;18306;40.960;14.836;2023-08-20T11:14:17;33.60;91.40
31725;DHT22;18306;40.960;14.836;2023-08-20T11:16:52;33.80;90.70
31725;DHT22;18306;40.960;14.836;2023-08-20T11:19:23;33.80;90.90
31725;DHT22;18306;40.960;14.836;2023-08-20T11:21:52;33.90;91.30
31725;DHT22;18306;40.960;14.836;2023-08-20T11:24:19;33.90;90.10
31725;DHT22;18306;40.960;14.836;2023-08-20T11:26:47;33.90;90.30
31725;DHT22;18306;40.960;14.836;2023-08-20T11:29:15;34.00;90.10
31725;DHT22;18306;40.960;14.836;2023-08-20T11:31:47;34.00;89.50
31725;DHT22;18306;40.960;14.836;2023-08-20T11:34:14;34.00;90.00
31725;DHT22;18306;40.960;14.836;2023-08-20T11:36:46;34.00;90.40
31725;DHT22;18306;40.960;14.836;2023-08-20T11:39:14;34.00;89.30
31725;DHT22;18306;40.960;14.836;2023-08-20T11:41:43;33.90;90.30
31725;DHT22;18306;40.960;14.836;2023-08-20T11:44:10;33.80;90.80
31725;DHT22;18306;40.960;14.836;2023-08-20T11:46:44;34.00;90.60
31725;DHT22;18306;40.960;14.836;2023-08-20T11:49:12;34.10;90.60
31725;DHT22;18306;40.960;14.836;2023-08-20T11:51:48;34.10;90.40
31725;DHT22;18306;40.960;14.836;2023-08-20T11:54:18;34.20;90.70
31725;DHT22;18306;40.960;14.836;2023-08-20T11:56:50;34.30;90.30
31725;DHT22;18306;40.960;14.836;2023-08-20T11:59:24;34.50;90.30
31725;DHT22;18306;40.960;14.836;2023-08-20T12:01:59;34.50;89.70
31725;DHT22;18306;40.960;14.836;2023-08-20T12:04:29;34.50;90.00
31725;DHT22;18306;40.960;14.836;2023-08-20T12:07:13;34.50;90.00
31725;DHT22;18306;40.960;14.836;2023-08-20T12:09:41;34.60;90.10
31725;DHT22;18306;40.960;14.836;2023-08-20T12:12:11;34.60;90.00
31725;DHT22;18306;40.960;14.836;2023-08-20T12:14:39;34.60;90.10
31725;DHT22;18306;40.960;14.836;2023-08-20T12:17:09;34.30;90.20
31725;DHT22;18306;40.960;14.836;2023-08-20T12:19:40;34.30;90.40
31725;DHT22;18306;40.960;14.836;2023-08-20T12:22:08;34.50;90.80
31725;DHT22;18306;40.960;14.836;2023-08-20T12:24:35;34.60;90.30
31725;DHT22;18306;40.960;14.836;2023-08-20T12:27:07;34.70;90.20
31725;DHT22;18306;40.960;14.836;2023-08-20T12:29:34;34.60;90.30
31725;DHT22;18306;40.960;14.836;2023-08-20T12:32:01;34.70;90.40
31725;DHT22;18306;40.960;14.836;2023-08-20T12:34:33;34.70;90.20
31725;DHT22;18306;40.960;14.836;2023-08-20T12:37:03;34.70;90.20
31725;DHT22;18306;40.960;14.836;2023-08-20T12:39:30;34.60;89.80
31725;DHT22;18306;40.960;14.836;2023-08-20T12:41:58;34.60;90.20
31725;DHT22;18306;40.960;14.836;2023-08-20T12:44:25;34.50;90.40
31725;DHT22;18306;40.960;14.836;2023-08-20T12:46:52;34.40;90.00
31725;DHT22;18306;40.960;14.836;2023-08-20T12:49:25;34.40;90.50
31725;DHT22;18306;40.960;14.836;2023-08-20T12:51:55;34.30;90.30
31725;DHT22;18306;40.960;14.836;2023-08-20T12:54:22;34.30;90.20
31725;DHT22;18306;40.960;14.836;2023-08-20T12:56:49;34.30;90.00
31725;DHT22;18306;40.960;14.836;2023-08-20T12:59:16;34.40;90.40
31725;DHT22;18306;40.960;14.836;2023-08-20T13:01:44;34.40;89.60
31725;DHT22;18306;40.960;14.836;2023-08-20T13:04:14;34.30;90.00
31725;DHT22;18306;40.960;14.836;2023-08-20T13:06:53;34.30;89.50
31725;DHT22;18306;40.960;14.836;2023-08-20T13:09:26;34.20;89.60
31725;DHT22;18306;40.960;14.836;2023-08-20T13:11:57;34.10;90.00
31725;DHT22;18306;40.960;14.836;2023-08-20T13:14:34;34.10;90.00
31725;DHT22;18306;40.960;14.836;2023-08-20T13:17:01;34.20;89.60
31725;DHT22;18306;40.960;14.836;2023-08-20T13:19:35;34.20;89.70
31725;DHT22;18306;40.960;14.836;2023-08-20T13:22:22;34.20;89.00
31725;DHT22;18306;40.960;14.836;2023-08-20T13:24:49;33.90;90.20
31725;DHT22;18306;40.960;14.836;2023-08-20T13:27:16;33.90;90.10
31725;DHT22;18306;40.960;14.836;2023-08-20T13:29:43;34.10;89.30
31725;DHT22;18306;40.960;14.836;2023-08-20T13:32:25;34.20;89.10
31725;DHT22;18306;40.960;14.836;2023-08-20T13:34:58;34.10;88.80
31725;DHT22;18306;40.960;14.836;2023-08-20T13:37:28;34.10;89.90
31725;DHT22;18306;40.960;14.836;2023-08-20T13:39:59;34.30;90.00
31725;DHT22;18306;40.960;14.836;2023-08-20T13:42:33;34.40;88.80
31725;DHT22;18306;40.960;14.836;2023-08-20T13:45:00;34.30;88.30
31725;DHT22;18306;40.960;14.836;2023-08-20T13:47:28;34.40;88.20
31725;DHT22;18306;40.960;14.836;2023-08-20T13:49:55;34.40;87.80
31725;DHT22;18306;40.960;14.836;2023-08-20T13:52:22;34.40;87.40
31725;DHT22;18306;40.960;14.836;2023-08-20T13:54:49;34.30;87.40
31725;DHT22;18306;40.960;14.836;2023-08-20T13:57:16;34.40;88.60
31725;DHT22;18306;40.960;14.836;2023-08-20T13:59:43;34.50;87.00
31725;DHT22;18306;40.960;14.836;2023-08-20T14:02:11;34.40;87.80
31725;DHT22;18306;40.960;14.836;2023-08-20T14:04:39;34.50;87.40
31725;DHT22;18306;40.960;14.836;2023-08-20T14:07:18;34.50;87.70
31725;DHT22;18306;40.960;14.836;2023-08-20T14:09:47;34.30;85.40
31725;DHT22;18306;40.960;14.836;2023-08-20T14:12:15;34.10;85.60
31725;DHT22;18306;40.960;14.836;2023-08-20T14:14:44;34.10;87.80
31725;DHT22;18306;40.960;14.836;2023-08-20T14:17:10;34.20;87.40
31725;DHT22;18306;40.960;14.836;2023-08-20T14:19:37;34.20;87.30
31725;DHT22;18306;40.960;14.836;2023-08-20T14:22:04;34.10;86.60
31725;DHT22;18306;40.960;14.836;2023-08-20T14:24:32;34.10;86.40
31725;DHT22;18306;40.960;14.836;2023-08-20T14:26:59;34.10;86.60
31725;DHT22;18306;40.960;14.836;2023-08-20T14:29:28;34.30;87.30
31725;DHT22;18306;40.960;14.836;2023-08-20T14:31:58;34.20;85.90
31725;DHT22;18306;40.960;14.836;2023-08-20T14:34:25;34.30;87.20
31725;DHT22;18306;40.960;14.836;2023-08-20T14:36:52;34.40;85.80
31725;DHT22;18306;40.960;14.836;2023-08-20T14:39:19;34.50;86.80
31725;DHT22;18306;40.960;14.836;2023-08-20T14:41:46;34.60;84.70
31725;DHT22;18306;40.960;14.836;2023-08-20T14:44:13;34.40;84.80
31725;DHT22;18306;40.960;14.836;2023-08-20T14:46:40;34.30;84.40
31725;DHT22;18306;40.960;14.836;2023-08-20T14:49:07;34.20;85.20
31725;DHT22;18306;40.960;14.836;2023-08-20T14:51:34;34.30;85.00
31725;DHT22;18306;40.960;14.836;2023-08-20T14:54:13;34.20;85.00
31725;DHT22;18306;40.960;14.836;2023-08-20T14:56:40;34.10;85.50
31725;DHT22;18306;40.960;14.836;2023-08-20T14:59:07;34.10;84.60
31725;DHT22;18306;40.960;14.836;2023-08-20T15:01:36;33.90;84.40
31725;DHT22;18306;40.960;14.836;2023-08-20T15:04:03;33.90;85.20
31725;DHT22;18306;40.960;14.836;2023-08-20T15:06:30;34.00;85.70
31725;DHT22;18306;40.960;14.836;2023-08-20T15:08:57;34.10;86.00
31725;DHT22;18306;40.960;14.836;2023-08-20T15:11:24;34.20;85.00
31725;DHT22;18306;40.960;14.836;2023-08-20T15:13:51;34.10;85.20
31725;DHT22;18306;40.960;14.836;2023-08-20T15:16:18;33.80;85.40
31725;DHT22;18306;40.960;14.836;2023-08-20T15:18:45;33.80;85.50
31725;DHT22;18306;40.960;14.836;2023-08-20T15:21:12;33.90;85.60
31725;DHT22;18306;40.960;14.836;2023-08-20T15:23:39;33.90;85.40
31725;DHT22;18306;40.960;14.836;2023-08-20T15:26:06;33.70;85.90
31725;DHT22;18306;40.960;14.836;2023-08-20T15:28:34;33.80;87.20
31725;DHT22;18306;40.960;14.836;2023-08-20T15:31:01;33.90;87.10
31725;DHT22;18306;40.960;14.836;2023-08-20T15:33:28;34.00;87.40
31725;DHT22;18306;40.960;14.836;2023-08-20T15:35:58;34.20;86.40